createdAt,value
2022-08-24T00:02:07.512Z,100535.13
2022-08-24T00:04:41.089Z,100543.28
2022-08-24T00:07:13.834Z,100540.47
2022-08-24T00:09:57.136Z,100542.41
2022-08-24T00:12:27.971Z,100543.88
2022-08-24T00:14:56.605Z,100545.16
2022-08-24T00:17:25.436Z,100538.69
2022-08-24T00:19:54.468Z,100538.41
2022-08-24T00:22:23.029Z,100536.84
2022-08-24T00:24:51.787Z,100536.69
2022-08-24T00:27:20.362Z,100539.91
2022-08-24T00:29:50.274Z,100540.97
2022-08-24T00:32:19.004Z,100542.25
2022-08-24T00:34:59.282Z,100544.59
2022-08-24T00:37:29.914Z,100538.38
2022-08-24T00:39:59.511Z,100535.09
2022-08-24T00:42:28.149Z,100538.09
2022-08-24T00:44:58.386Z,100541.72
2022-08-24T00:47:33.674Z,100545.94
2022-08-24T00:50:08.690Z,100536.81
2022-08-24T00:52:47.458Z,100542.00
2022-08-24T00:55:23.411Z,100532.91
2022-08-24T00:57:58.946Z,100531.59
2022-08-24T01:00:35.213Z,100530.16
2022-08-24T01:03:07.452Z,100535.81
2022-08-24T01:05:39.535Z,100533.78
2022-08-24T01:08:13.000Z,100537.13
2022-08-24T01:10:51.690Z,100538.72
2022-08-24T01:13:21.167Z,100543.59
2022-08-24T01:15:59.155Z,100542.25
2022-08-24T01:18:46.973Z,100538.97
2022-08-24T01:21:20.963Z,100533.13
2022-08-24T01:23:54.677Z,100536.72
2022-08-24T01:26:30.106Z,100537.63
2022-08-24T01:29:05.401Z,100543.94
2022-08-24T01:31:35.362Z,100552.38
2022-08-24T01:34:05.676Z,100550.25
2022-08-24T01:36:38.779Z,100545.84
2022-08-24T01:39:16.032Z,100548.25
2022-08-24T01:41:45.250Z,100538.44
2022-08-24T01:44:15.403Z,100555.00
2022-08-24T01:46:45.789Z,100555.72
2022-08-24T01:49:14.976Z,100570.56
2022-08-24T01:51:46.401Z,100584.13
2022-08-24T01:54:17.724Z,100581.28
2022-08-24T01:56:46.750Z,100576.66
2022-08-24T01:59:18.086Z,100580.69
2022-08-24T02:01:53.516Z,100576.78
2022-08-24T02:04:22.376Z,100585.94
2022-08-24T02:06:52.023Z,100593.38
2022-08-24T02:09:22.145Z,100595.22
2022-08-24T02:11:51.174Z,100596.72
2022-08-24T02:14:20.684Z,100598.88
2022-08-24T02:16:49.639Z,100595.53
2022-08-24T02:19:27.294Z,100604.34
2022-08-24T02:21:56.731Z,100605.34
2022-08-24T02:24:27.074Z,100605.59
2022-08-24T02:26:56.533Z,100594.44
2022-08-24T02:29:25.895Z,100599.72
2022-08-24T02:31:54.740Z,100594.06
2022-08-24T02:34:23.619Z,100603.38
2022-08-24T02:36:52.344Z,100603.66
2022-08-24T02:39:22.372Z,100607.38
2022-08-24T02:41:54.420Z,100597.97
2022-08-24T02:44:23.764Z,100588.59
2022-08-24T02:46:53.079Z,100596.88
2022-08-24T02:49:23.259Z,100593.69
2022-08-24T02:51:53.029Z,100592.78
2022-08-24T02:54:23.494Z,100592.75
2022-08-24T02:56:55.716Z,100596.56
2022-08-24T02:59:24.762Z,100595.28
2022-08-24T03:01:54.124Z,100592.53
2022-08-24T03:04:24.580Z,100593.59
2022-08-24T03:06:53.697Z,100603.44
2022-08-24T03:09:24.728Z,100596.84
2022-08-24T03:12:01.039Z,100609.06
2022-08-24T03:14:29.593Z,100605.03
2022-08-24T03:16:58.280Z,100601.16
2022-08-24T03:19:27.159Z,100598.88
2022-08-24T03:21:56.214Z,100593.91
2022-08-24T03:24:25.014Z,100591.41
2022-08-24T03:26:54.080Z,100603.28
2022-08-24T03:29:25.456Z,100607.56
2022-08-24T03:31:54.028Z,100609.16
2022-08-24T03:34:22.813Z,100613.97
2022-08-24T03:36:51.405Z,100611.06
2022-08-24T03:39:20.054Z,100610.28
2022-08-24T03:41:51.662Z,100612.59
2022-08-24T03:44:23.165Z,100608.84
2022-08-24T03:46:54.724Z,100607.56
2022-08-24T03:49:25.874Z,100610.59
2022-08-24T03:51:54.709Z,100612.56
2022-08-24T03:54:25.394Z,100621.19
2022-08-24T03:56:54.066Z,100625.66
2022-08-24T03:59:23.746Z,100624.16
2022-08-24T04:01:57.523Z,100628.19
2022-08-24T04:04:30.498Z,100628.06
2022-08-24T04:06:59.862Z,100629.84
2022-08-24T04:09:29.681Z,100629.47
2022-08-24T04:11:58.419Z,100628.91
2022-08-24T04:14:28.227Z,100629.91
2022-08-24T04:17:07.415Z,100633.13
2022-08-24T04:19:57.770Z,100641.06
2022-08-24T04:22:34.269Z,100643.72
2022-08-24T04:25:09.487Z,100645.47
2022-08-24T04:27:40.884Z,100643.28
2022-08-24T04:30:14.069Z,100649.69
2022-08-24T04:33:18.484Z,100646.88
2022-08-24T04:35:50.419Z,100654.13
2022-08-24T04:38:20.684Z,100657.22
2022-08-24T04:41:15.489Z,100657.63
2022-08-24T04:43:54.800Z,100658.63
2022-08-24T04:46:24.244Z,100662.53
2022-08-24T04:48:54.375Z,100667.78
2022-08-24T04:51:23.734Z,100668.28
2022-08-24T04:53:53.598Z,100668.09
2022-08-24T04:56:25.432Z,100668.28
2022-08-24T04:58:57.998Z,100676.28
2022-08-24T05:01:32.725Z,100683.56
2022-08-24T05:04:05.412Z,100685.16
2022-08-24T05:06:34.846Z,100680.63
2022-08-24T05:09:05.540Z,100677.97
2022-08-24T05:11:39.592Z,100676.28
2022-08-24T05:14:09.683Z,100668.97
2022-08-24T05:16:45.575Z,100663.19
2022-08-24T05:19:24.124Z,100671.19
2022-08-24T05:21:53.127Z,100669.94
2022-08-24T05:24:22.044Z,100669.31
2022-08-24T05:26:53.240Z,100668.84
2022-08-24T05:29:23.230Z,100668.59
2022-08-24T05:31:53.609Z,100679.81
2022-08-24T05:34:25.485Z,100680.25
2022-08-24T05:36:54.913Z,100684.00
2022-08-24T05:39:40.771Z,100678.50
2022-08-24T05:42:10.951Z,100671.28
2022-08-24T05:44:47.975Z,100671.78
2022-08-24T05:47:20.865Z,100667.91
2022-08-24T05:49:53.122Z,100670.00
2022-08-24T05:52:24.982Z,100678.75
2022-08-24T05:54:55.304Z,100669.91
2022-08-24T05:57:26.276Z,100658.25
2022-08-24T06:00:16.380Z,100651.56
2022-08-24T06:02:48.431Z,100665.59
2022-08-24T06:05:18.807Z,100663.25
2022-08-24T06:07:48.111Z,100655.22
2022-08-24T06:10:36.004Z,100650.38
2022-08-24T06:13:05.809Z,100645.38
2022-08-24T06:15:35.757Z,100651.69
2022-08-24T06:18:05.822Z,100654.22
2022-08-24T06:20:42.490Z,100654.50
2022-08-24T06:23:11.761Z,100658.19
2022-08-24T06:26:06.028Z,100665.09
2022-08-24T06:28:34.965Z,100658.59
2022-08-24T06:31:07.211Z,100661.59
2022-08-24T06:33:37.021Z,100661.41
2022-08-24T06:36:07.854Z,100670.25
2022-08-24T06:38:36.880Z,100667.06
2022-08-24T06:41:08.614Z,100670.16
2022-08-24T06:43:38.240Z,100675.00
2022-08-24T06:46:13.773Z,100686.59
2022-08-24T06:48:46.874Z,100687.75
2022-08-24T06:51:20.464Z,100698.19
2022-08-24T06:53:51.434Z,100691.59
2022-08-24T06:56:20.468Z,100699.53
2022-08-24T06:58:49.176Z,100701.59
2022-08-24T07:01:24.323Z,100698.28
2022-08-24T07:03:53.522Z,100701.81
2022-08-24T07:06:42.480Z,100702.84
2022-08-24T07:09:12.261Z,100705.41
2022-08-24T07:11:41.884Z,100706.78
2022-08-24T07:14:11.719Z,100701.59
2022-08-24T07:16:40.389Z,100723.63
2022-08-24T07:19:10.069Z,100726.38
2022-08-24T07:21:38.808Z,100721.78
2022-08-24T07:24:10.750Z,100723.91
2022-08-24T07:26:42.247Z,100726.03
2022-08-24T07:29:43.636Z,100730.28
2022-08-24T07:32:06.809Z,100727.56
2022-08-24T07:34:38.467Z,100737.47
2022-08-24T07:37:09.117Z,100735.34
2022-08-24T07:39:42.792Z,100743.94
2022-08-24T07:42:18.879Z,100739.66
2022-08-24T07:44:52.752Z,100738.50
2022-08-24T07:47:43.109Z,100738.28
2022-08-24T07:50:24.814Z,100735.03
2022-08-24T07:52:53.691Z,100733.66
2022-08-24T07:55:23.965Z,100732.78
2022-08-24T07:57:52.586Z,100726.38
2022-08-24T08:00:22.986Z,100737.19
2022-08-24T08:02:57.808Z,100719.28
2022-08-24T08:05:26.927Z,100724.28
2022-08-24T08:07:57.596Z,100722.75
2022-08-24T08:10:31.148Z,100728.66
2022-08-24T08:13:00.103Z,100733.47
2022-08-24T08:15:29.108Z,100732.13
2022-08-24T08:18:08.379Z,100744.66
2022-08-24T08:20:42.649Z,100738.75
2022-08-24T08:23:29.777Z,100738.19
2022-08-24T08:26:23.059Z,100737.47
2022-08-24T08:29:08.166Z,100741.69
2022-08-24T08:31:39.752Z,100751.16
2022-08-24T08:34:10.196Z,100755.75
2022-08-24T08:36:41.695Z,100750.50
2022-08-24T08:39:16.291Z,100761.78
2022-08-24T08:42:58.116Z,100756.78
2022-08-24T08:45:42.553Z,100761.38
2022-08-24T08:49:20.125Z,100770.66
2022-08-24T08:52:27.009Z,100771.00
2022-08-24T08:55:21.237Z,100767.75
2022-08-24T08:58:13.319Z,100765.59
2022-08-24T09:01:01.578Z,100775.00
2022-08-24T09:04:05.083Z,100775.16
2022-08-24T09:07:13.049Z,100772.16
2022-08-24T09:10:10.427Z,100762.75
2022-08-24T09:13:06.735Z,100770.44
2022-08-24T09:15:57.991Z,100774.91
2022-08-24T09:18:48.448Z,100775.69
2022-08-24T09:21:40.352Z,100763.81
2022-08-24T09:24:42.141Z,100766.16
2022-08-24T09:27:53.710Z,100762.56
2022-08-24T09:30:27.236Z,100772.41
2022-08-24T09:33:07.300Z,100767.53
2022-08-24T09:36:10.859Z,100775.34
2022-08-24T09:39:06.944Z,100766.53
2022-08-24T09:42:31.635Z,100763.19
2022-08-24T09:45:38.577Z,100768.00
2022-08-24T09:48:54.571Z,100774.03
2022-08-24T09:52:10.980Z,100781.97
2022-08-24T09:55:37.128Z,100790.09
2022-08-24T09:58:26.629Z,100777.75
2022-08-24T10:01:09.933Z,100788.66
2022-08-24T10:03:59.765Z,100783.25
2022-08-24T10:06:46.727Z,100780.13
2022-08-24T10:09:41.137Z,100779.75
2022-08-24T10:12:21.943Z,100779.47
2022-08-24T10:15:04.281Z,100776.00
2022-08-24T10:18:01.892Z,100778.94
2022-08-24T10:21:10.229Z,100777.00
2022-08-24T10:23:59.987Z,100775.03
2022-08-24T10:26:51.631Z,100782.91
2022-08-24T10:29:43.044Z,100771.22
2022-08-24T10:32:38.085Z,100767.13
2022-08-24T10:35:15.641Z,100768.38
2022-08-24T10:38:47.523Z,100769.19
2022-08-24T10:42:07.164Z,100770.84
2022-08-24T10:44:50.111Z,100773.97
2022-08-24T10:47:24.465Z,100779.81
2022-08-24T10:50:34.794Z,100773.56
2022-08-24T10:53:23.733Z,100767.94
2022-08-24T10:56:06.589Z,100773.34
2022-08-24T10:59:03.288Z,100761.69
2022-08-24T11:01:36.921Z,100760.25
2022-08-24T11:04:11.222Z,100760.03
2022-08-24T11:06:45.155Z,100756.72
2022-08-24T11:09:19.648Z,100758.53
2022-08-24T11:11:51.255Z,100757.97
2022-08-24T11:14:29.528Z,100749.47
2022-08-24T11:17:17.525Z,100766.44
2022-08-24T11:19:46.877Z,100756.16
2022-08-24T11:22:40.760Z,100757.50
2022-08-24T11:25:21.793Z,100752.94
2022-08-24T11:27:59.057Z,100761.72
2022-08-24T11:30:31.120Z,100758.28
2022-08-24T11:33:03.341Z,100755.03
2022-08-24T11:35:39.926Z,100758.34
2022-08-24T11:38:18.648Z,100760.78
2022-08-24T11:40:55.705Z,100767.91
2022-08-24T11:43:43.098Z,100761.63
2022-08-24T11:46:28.718Z,100766.38
2022-08-24T11:49:10.814Z,100750.03
2022-08-24T11:51:55.369Z,100755.63
2022-08-24T11:54:39.976Z,100763.63
2022-08-24T11:57:18.234Z,100772.13
2022-08-24T11:59:56.355Z,100769.63
2022-08-24T12:02:35.048Z,100764.34
2022-08-24T12:05:22.672Z,100762.69
2022-08-24T12:08:06.806Z,100761.34
2022-08-24T12:10:51.085Z,100766.69
2022-08-24T12:13:37.279Z,100755.38
2022-08-24T12:16:17.539Z,100746.41
2022-08-24T12:18:58.325Z,100750.94
2022-08-24T12:21:33.145Z,100749.13
2022-08-24T12:24:08.215Z,100743.53
2022-08-24T12:26:43.743Z,100748.53
2022-08-24T12:29:22.115Z,100744.44
2022-08-24T12:31:56.919Z,100735.25
2022-08-24T12:34:38.207Z,100743.44
2022-08-24T12:37:17.465Z,100741.38
2022-08-24T12:39:55.272Z,100735.75
2022-08-24T12:42:39.403Z,100732.97
2022-08-24T12:45:12.661Z,100742.25
2022-08-24T12:47:51.457Z,100737.00
2022-08-24T12:50:33.008Z,100739.44
2022-08-24T12:53:30.142Z,100743.44
2022-08-24T12:57:07.617Z,100735.41
2022-08-24T12:59:45.355Z,100733.91
2022-08-24T13:02:36.663Z,100740.19
2022-08-24T13:05:15.376Z,100729.44
2022-08-24T13:07:48.769Z,100733.38
2022-08-24T13:10:44.922Z,100733.31
2022-08-24T13:13:39.075Z,100737.81
2022-08-24T13:16:32.495Z,100747.84
2022-08-24T13:19:19.267Z,100733.22
2022-08-24T13:21:55.998Z,100731.94
2022-08-24T13:24:52.823Z,100731.59
2022-08-24T13:28:02.490Z,100734.38
2022-08-24T13:31:13.952Z,100731.06
2022-08-24T13:33:48.746Z,100727.13
2022-08-24T13:36:56.005Z,100733.84
2022-08-24T13:39:52.776Z,100728.94
2022-08-24T13:42:52.641Z,100730.34
2022-08-24T13:45:35.206Z,100724.94
2022-08-24T13:48:27.095Z,100728.53
2022-08-24T13:51:30.107Z,100718.66
2022-08-24T13:54:20.246Z,100720.44
2022-08-24T13:57:10.065Z,100723.88
2022-08-24T14:00:03.329Z,100720.91
2022-08-24T14:03:00.130Z,100717.09
2022-08-24T14:05:38.468Z,100715.53
2022-08-24T14:08:31.209Z,100711.66
2022-08-24T14:11:10.969Z,100715.06
2022-08-24T14:14:04.159Z,100706.50
2022-08-24T14:17:20.159Z,100713.91
2022-08-24T14:20:04.102Z,100717.63
2022-08-24T14:22:40.653Z,100710.25
2022-08-24T14:25:24.197Z,100708.56
2022-08-24T14:28:38.924Z,100716.13
2022-08-24T14:31:28.224Z,100709.28
2022-08-24T14:34:18.935Z,100708.38
2022-08-24T14:36:57.715Z,100708.31
2022-08-24T14:39:40.237Z,100703.47
2022-08-24T14:42:22.653Z,100695.22
2022-08-24T14:45:07.922Z,100695.56
2022-08-24T14:47:54.977Z,100675.97
2022-08-24T14:50:33.306Z,100693.31
2022-08-24T14:53:34.137Z,100691.94
2022-08-24T14:56:25.191Z,100688.28
2022-08-24T14:59:11.004Z,100683.03
2022-08-24T15:01:44.856Z,100690.28
2022-08-24T15:04:38.005Z,100695.94
2022-08-24T15:07:28.640Z,100694.56
2022-08-24T15:10:01.009Z,100701.56
2022-08-24T15:12:42.808Z,100707.94
2022-08-24T15:15:25.528Z,100709.03
2022-08-24T15:18:06.885Z,100704.09
2022-08-24T15:20:57.596Z,100706.53
2022-08-24T15:23:45.447Z,100711.31
2022-08-24T15:26:28.599Z,100708.41
2022-08-24T15:28:58.090Z,100711.69
2022-08-24T15:31:32.392Z,100706.69
2022-08-24T15:34:04.321Z,100705.84
2022-08-24T15:36:34.772Z,100697.03
2022-08-24T15:39:06.479Z,100704.56
2022-08-24T15:41:39.992Z,100702.13
2022-08-24T15:44:21.179Z,100690.28
2022-08-24T15:46:58.917Z,100694.88
2022-08-24T15:49:35.368Z,100692.09
2022-08-24T15:52:08.115Z,100681.69
2022-08-24T15:54:59.073Z,100680.97
2022-08-24T15:57:31.369Z,100694.81
2022-08-24T16:00:13.896Z,100695.56
2022-08-24T16:02:43.668Z,100698.94
2022-08-24T16:05:21.452Z,100702.59
2022-08-24T16:08:11.056Z,100708.44
2022-08-24T16:10:44.869Z,100709.13
2022-08-24T16:13:28.300Z,100712.81
2022-08-24T16:16:06.114Z,100721.44
2022-08-24T16:18:50.849Z,100727.28
2022-08-24T16:21:28.890Z,100734.09
2022-08-24T16:24:08.283Z,100731.09
2022-08-24T16:26:57.920Z,100729.78
2022-08-24T16:29:55.845Z,100733.81
2022-08-24T16:32:30.579Z,100743.34
2022-08-24T16:35:23.147Z,100743.38
2022-08-24T16:37:54.790Z,100752.78
2022-08-24T16:40:24.745Z,100747.25
2022-08-24T16:42:55.400Z,100747.81
2022-08-24T16:45:24.918Z,100745.91
2022-08-24T16:47:53.914Z,100744.00
2022-08-24T16:50:27.496Z,100740.13
2022-08-24T16:52:56.604Z,100739.84
2022-08-24T16:55:25.723Z,100731.06
2022-08-24T16:57:54.341Z,100736.28
2022-08-24T17:00:23.818Z,100736.91
2022-08-24T17:02:52.498Z,100735.38
2022-08-24T17:05:21.115Z,100728.13
2022-08-24T17:07:51.860Z,100728.94
2022-08-24T17:10:23.274Z,100728.28
2022-08-24T17:12:52.208Z,100733.75
2022-08-24T17:15:22.295Z,100739.31
2022-08-24T17:18:00.043Z,100730.53
2022-08-24T17:20:29.422Z,100729.63
2022-08-24T17:22:59.868Z,100728.22
2022-08-24T17:25:30.426Z,100734.19
2022-08-24T17:28:01.204Z,100739.06
2022-08-24T17:30:30.883Z,100752.16
2022-08-24T17:33:00.637Z,100750.44
2022-08-24T17:35:29.596Z,100754.47
2022-08-24T17:38:01.032Z,100753.38
2022-08-24T17:40:32.029Z,100755.28
2022-08-24T17:43:00.922Z,100778.22
2022-08-24T17:45:29.911Z,100771.97
2022-08-24T17:47:58.732Z,100778.00
2022-08-24T17:50:28.569Z,100777.50
2022-08-24T17:53:00.234Z,100779.31
2022-08-24T17:55:30.847Z,100777.75
2022-08-24T17:58:01.914Z,100796.78
2022-08-24T18:00:30.793Z,100795.66
2022-08-24T18:02:59.682Z,100791.97
2022-08-24T18:05:28.846Z,100787.94
2022-08-24T18:07:58.003Z,100786.59
2022-08-24T18:10:32.310Z,100786.78
2022-08-24T18:13:03.610Z,100788.06
2022-08-24T18:15:37.440Z,100790.88
2022-08-24T18:18:09.804Z,100793.66
2022-08-24T18:20:42.558Z,100789.97
2022-08-24T18:23:12.576Z,100797.75
2022-08-24T18:25:48.491Z,100796.84
2022-08-24T18:28:21.944Z,100799.38
2022-08-24T18:30:52.584Z,100798.81
2022-08-24T18:33:21.714Z,100808.56
2022-08-24T18:35:50.429Z,100800.56
2022-08-24T18:38:19.214Z,100800.28
2022-08-24T18:40:52.863Z,100803.16
2022-08-24T18:43:24.936Z,100804.47
2022-08-24T18:45:54.856Z,100819.00
2022-08-24T18:48:24.094Z,100833.56
2022-08-24T18:50:54.768Z,100844.66
2022-08-24T18:53:27.313Z,100854.59
2022-08-24T18:55:59.664Z,100847.94
2022-08-24T18:58:30.526Z,100849.06
2022-08-24T19:00:59.309Z,100850.81
2022-08-24T19:03:28.879Z,100851.94
2022-08-24T19:05:57.678Z,100860.25
2022-08-24T19:08:26.411Z,100869.56
2022-08-24T19:10:56.641Z,100871.00
2022-08-24T19:13:25.591Z,100876.63
2022-08-24T19:15:54.355Z,100867.09
2022-08-24T19:18:23.889Z,100857.03
2022-08-24T19:20:57.559Z,100872.28
2022-08-24T19:23:30.363Z,100877.81
2022-08-24T19:26:01.981Z,100882.44
2022-08-24T19:28:31.902Z,100879.00
2022-08-24T19:31:05.291Z,100881.13
2022-08-24T19:33:38.287Z,100884.81
2022-08-24T19:36:10.497Z,100886.47
2022-08-24T19:38:39.373Z,100884.34
2022-08-24T19:41:12.662Z,100889.81
2022-08-24T19:43:57.042Z,100893.41
2022-08-24T19:46:26.482Z,100894.84
2022-08-24T19:48:55.334Z,100892.31
2022-08-24T19:51:23.911Z,100892.59
2022-08-24T19:53:52.942Z,100899.81
2022-08-24T19:56:23.788Z,100891.84
2022-08-24T19:59:01.704Z,100895.81
2022-08-24T20:01:34.862Z,100888.34
2022-08-24T20:04:06.357Z,100898.25
2022-08-24T20:06:37.193Z,100892.56
2022-08-24T20:09:06.912Z,100899.53
2022-08-24T20:11:38.944Z,100904.69
2022-08-24T20:14:08.106Z,100899.16
2022-08-24T20:16:42.138Z,100900.03
2022-08-24T20:19:12.813Z,100901.56
2022-08-24T20:21:41.716Z,100890.47
2022-08-24T20:24:11.298Z,100890.56
2022-08-24T20:26:45.089Z,100890.13
2022-08-24T20:29:15.265Z,100896.84
2022-08-24T20:31:45.451Z,100892.06
2022-08-24T20:34:14.555Z,100895.09
2022-08-24T20:36:50.706Z,100902.56
2022-08-24T20:39:25.336Z,100895.50
2022-08-24T20:41:56.182Z,100889.81
2022-08-24T20:44:24.938Z,100891.81
2022-08-24T20:46:54.856Z,100896.31
2022-08-24T20:49:27.827Z,100899.00
2022-08-24T20:51:56.615Z,100909.53
2022-08-24T20:54:25.469Z,100902.91
2022-08-24T20:56:55.731Z,100902.34
2022-08-24T20:59:24.370Z,100892.66
2022-08-24T21:01:55.868Z,100888.06
2022-08-24T21:04:24.616Z,100884.28
2022-08-24T21:06:53.457Z,100879.28
2022-08-24T21:09:22.488Z,100877.38
2022-08-24T21:11:51.134Z,100872.88
2022-08-24T21:14:21.066Z,100875.06
2022-08-24T21:16:49.891Z,100874.97
2022-08-24T21:19:18.430Z,100866.41
2022-08-24T21:21:48.361Z,100863.91
2022-08-24T21:24:17.938Z,100866.00
2022-08-24T21:26:47.055Z,100872.91
2022-08-24T21:29:15.747Z,100870.19
2022-08-24T21:32:06.179Z,100870.56
2022-08-24T21:34:42.728Z,100872.25
2022-08-24T21:37:15.140Z,100867.44
2022-08-24T21:39:46.725Z,100869.25
2022-08-24T21:42:17.514Z,100859.56
2022-08-24T21:44:48.825Z,100865.81
2022-08-24T21:47:18.990Z,100865.81
2022-08-24T21:49:47.567Z,100870.47
2022-08-24T21:52:16.297Z,100860.53
2022-08-24T21:54:45.318Z,100863.59
2022-08-24T21:57:14.050Z,100859.47
2022-08-24T21:59:43.238Z,100864.16
2022-08-24T22:02:13.507Z,100853.63
2022-08-24T22:04:47.039Z,100851.25
2022-08-24T22:07:23.962Z,100855.91
2022-08-24T22:09:52.566Z,100859.56
2022-08-24T22:12:21.170Z,100860.16
2022-08-24T22:14:49.969Z,100858.38
2022-08-24T22:17:18.629Z,100860.94
2022-08-24T22:19:48.519Z,100863.31
2022-08-24T22:22:17.315Z,100863.81
2022-08-24T22:24:46.019Z,100863.00
2022-08-24T22:27:14.995Z,100859.00
2022-08-24T22:29:43.828Z,100858.66
2022-08-24T22:32:12.676Z,100867.03
2022-08-24T22:34:41.239Z,100869.41
2022-08-24T22:37:11.416Z,100862.69
2022-08-24T22:39:39.975Z,100864.88
2022-08-24T22:42:09.453Z,100865.56
2022-08-24T22:44:38.273Z,100857.31
2022-08-24T22:47:13.271Z,100846.97
2022-08-24T22:49:44.790Z,100848.66
2022-08-24T22:52:16.683Z,100852.34
2022-08-24T22:54:45.425Z,100846.22
2022-08-24T22:57:14.341Z,100843.25
2022-08-24T22:59:48.543Z,100832.81
2022-08-24T23:02:19.752Z,100827.00
2022-08-24T23:04:52.777Z,100829.19
2022-08-24T23:07:23.089Z,100825.72
2022-08-24T23:09:52.175Z,100823.22
2022-08-24T23:12:24.224Z,100827.63
2022-08-24T23:14:54.046Z,100820.72
2022-08-24T23:17:23.781Z,100820.50
2022-08-24T23:20:01.466Z,100815.69
2022-08-24T23:22:36.112Z,100820.88
2022-08-24T23:25:06.999Z,100824.53
2022-08-24T23:27:37.916Z,100821.81
2022-08-24T23:30:12.478Z,100825.41
2022-08-24T23:32:43.097Z,100827.53
2022-08-24T23:35:11.728Z,100826.81
2022-08-24T23:37:42.273Z,100824.66
2022-08-24T23:40:12.574Z,100828.16
2022-08-24T23:42:41.171Z,100830.53
2022-08-24T23:45:12.377Z,100831.22
2022-08-24T23:47:41.850Z,100827.22
2022-08-24T23:50:11.734Z,100829.72
2022-08-24T23:52:42.209Z,100831.19
2022-08-24T23:55:20.970Z,100829.22
2022-08-24T23:57:52.554Z,100831.47
